createdAt,value
2023-03-20T00:00:53.324Z,5.20
2023-03-20T00:04:54.543Z,4.23
2023-03-20T00:08:56.954Z,5.93
2023-03-20T00:12:59.623Z,4.63
2023-03-20T00:17:01.378Z,5.03
2023-03-20T00:21:02.530Z,6.23
2023-03-20T00:25:04.453Z,4.77
2023-03-20T00:29:07.248Z,7.83
2023-03-20T00:33:10.141Z,6.90
2023-03-20T00:37:12.110Z,5.90
2023-03-20T00:41:23.088Z,7.77
2023-03-20T00:45:25.152Z,4.50
2023-03-20T00:49:32.422Z,5.23
2023-03-20T00:53:33.558Z,5.00
2023-03-20T00:57:44.007Z,5.23
2023-03-20T01:01:46.077Z,5.37
2023-03-20T01:05:48.921Z,7.40
2023-03-20T01:09:50.409Z,6.10
2023-03-20T01:13:51.761Z,5.90
2023-03-20T01:17:52.938Z,5.67
2023-03-20T01:21:54.087Z,6.63
2023-03-20T01:25:55.342Z,6.87
2023-03-20T01:29:56.435Z,6.70
2023-03-20T01:33:57.627Z,8.10
2023-03-20T01:37:58.792Z,7.97
2023-03-20T01:42:01.736Z,10.13
2023-03-20T01:46:12.751Z,7.80
2023-03-20T01:50:26.497Z,8.80
2023-03-20T01:54:31.146Z,7.13
2023-03-20T01:58:36.586Z,7.50
2023-03-20T02:02:39.658Z,8.30
2023-03-20T02:06:41.403Z,10.07
2023-03-20T02:10:45.506Z,11.03
2023-03-20T02:14:47.879Z,8.50
2023-03-20T02:18:51.544Z,9.40
2023-03-20T02:22:56.545Z,10.87
2023-03-20T02:27:24.638Z,11.23
2023-03-20T02:31:32.793Z,10.40
2023-03-20T02:35:57.383Z,10.50
2023-03-20T02:40:08.617Z,11.00
2023-03-20T02:44:22.998Z,10.90
2023-03-20T02:48:43.259Z,11.50
2023-03-20T02:53:05.527Z,13.87
2023-03-20T02:57:10.487Z,12.00
2023-03-20T03:01:21.415Z,13.63
2023-03-20T03:05:26.344Z,12.30
2023-03-20T03:09:36.803Z,12.60
2023-03-20T03:13:47.205Z,16.60
2023-03-20T03:17:49.173Z,13.13
2023-03-20T03:21:51.042Z,12.90
2023-03-20T03:25:54.505Z,13.53
2023-03-20T03:29:59.181Z,15.57
2023-03-20T03:34:00.952Z,14.30
2023-03-20T03:38:21.290Z,16.10
2023-03-20T03:42:28.302Z,14.70
2023-03-20T03:46:45.489Z,13.00
2023-03-20T03:50:50.661Z,13.87
2023-03-20T03:54:55.622Z,14.97
2023-03-20T03:59:00.489Z,13.90
2023-03-20T04:03:04.177Z,13.37
2023-03-20T04:07:05.339Z,13.13
2023-03-20T04:11:08.391Z,14.67
2023-03-20T04:15:11.484Z,12.67
2023-03-20T04:19:13.117Z,13.60
2023-03-20T04:23:14.606Z,13.53
2023-03-20T04:27:16.503Z,14.97
2023-03-20T04:31:18.205Z,13.80
2023-03-20T04:35:19.301Z,14.83
2023-03-20T04:39:20.664Z,14.23
2023-03-20T04:43:21.817Z,15.37
2023-03-20T04:47:22.983Z,16.03
2023-03-20T04:51:24.121Z,16.43
2023-03-20T04:55:25.624Z,15.80
2023-03-20T04:59:26.897Z,14.10
2023-03-20T05:03:27.959Z,16.43
2023-03-20T05:07:29.118Z,16.50
2023-03-20T05:11:30.446Z,15.83
2023-03-20T05:15:31.806Z,16.40
2023-03-20T05:19:32.966Z,13.90
2023-03-20T05:23:34.125Z,15.40
2023-03-20T05:27:35.187Z,16.10
2023-03-20T05:31:36.430Z,16.07
2023-03-20T05:35:37.872Z,13.90
2023-03-20T05:39:39.262Z,16.53
2023-03-20T05:43:40.412Z,15.23
2023-03-20T05:47:41.560Z,16.40
2023-03-20T05:51:43.567Z,15.90
2023-03-20T05:55:44.864Z,16.90
2023-03-20T05:59:46.015Z,15.60
2023-03-20T06:03:48.119Z,18.17
2023-03-20T06:07:49.250Z,17.97
2023-03-20T06:11:50.424Z,16.40
2023-03-20T06:15:51.822Z,17.90
2023-03-20T06:19:52.972Z,18.67
2023-03-20T06:23:54.428Z,16.90
2023-03-20T06:27:55.856Z,19.53
2023-03-20T06:31:57.121Z,16.97
2023-03-20T06:35:58.374Z,20.73
2023-03-20T06:39:59.596Z,17.93
2023-03-20T06:44:00.901Z,17.03
2023-03-20T06:48:07.667Z,18.23
2023-03-20T06:52:15.976Z,21.27
2023-03-20T06:56:17.716Z,22.23
2023-03-20T07:00:21.107Z,18.93
2023-03-20T07:04:22.369Z,23.70
2023-03-20T07:08:24.068Z,21.60
2023-03-20T07:12:27.299Z,22.60
2023-03-20T07:16:28.627Z,21.07
2023-03-20T07:20:29.898Z,21.10
2023-03-20T07:24:32.053Z,18.80
2023-03-20T07:28:33.394Z,17.70
2023-03-20T07:32:37.205Z,19.50
2023-03-20T07:36:37.601Z,19.97
2023-03-20T07:40:38.784Z,22.93
2023-03-20T07:44:40.214Z,19.73
2023-03-20T07:48:41.594Z,19.13
2023-03-20T07:52:47.461Z,22.23
2023-03-20T07:56:50.036Z,19.90
2023-03-20T08:00:51.323Z,18.50
2023-03-20T08:04:52.473Z,20.37
2023-03-20T08:08:54.154Z,23.50
2023-03-20T08:12:55.498Z,14.70
2023-03-20T08:17:13.314Z,18.00
2023-03-20T08:21:01.013Z,19.30
2023-03-20T08:25:02.474Z,18.87
2023-03-20T08:29:03.850Z,20.80
2023-03-20T08:33:05.022Z,23.03
2023-03-20T08:37:07.261Z,21.00
2023-03-20T08:41:08.434Z,23.70
2023-03-20T08:45:10.949Z,21.00
2023-03-20T08:49:12.017Z,27.97
2023-03-20T08:53:13.158Z,29.83
2023-03-20T08:57:14.312Z,30.10
2023-03-20T09:01:15.841Z,28.20
2023-03-20T09:05:17.099Z,30.10
2023-03-20T09:09:20.148Z,31.33
2023-03-20T09:13:27.157Z,30.00
2023-03-20T09:17:25.506Z,30.33
2023-03-20T09:21:26.802Z,34.37
2023-03-20T09:25:28.221Z,32.50
2023-03-20T09:29:29.680Z,35.67
2023-03-20T09:33:30.960Z,32.47
2023-03-20T09:37:32.097Z,32.67
2023-03-20T09:41:45.557Z,35.40
2023-03-20T09:45:48.353Z,32.57
2023-03-20T09:50:08.634Z,32.30
2023-03-20T09:54:16.718Z,36.37
2023-03-20T09:58:24.991Z,33.20
2023-03-20T10:02:48.677Z,36.77
2023-03-20T10:06:49.923Z,33.43
2023-03-20T10:11:15.908Z,37.30
2023-03-20T10:15:36.341Z,42.23
2023-03-20T10:19:44.203Z,44.30
2023-03-20T10:23:58.488Z,40.50
2023-03-20T10:28:03.581Z,31.63
2023-03-20T10:32:08.599Z,26.87
2023-03-20T10:36:35.310Z,25.90
2023-03-20T10:40:40.460Z,30.07
2023-03-20T10:44:45.632Z,23.13
2023-03-20T10:48:53.685Z,21.17
2023-03-20T10:52:56.350Z,21.20
2023-03-20T10:56:59.988Z,23.70
2023-03-20T11:01:02.521Z,18.37
2023-03-20T11:05:10.662Z,17.90
2023-03-20T11:09:21.523Z,17.17
2023-03-20T11:13:32.504Z,18.07
2023-03-20T11:17:33.680Z,17.10
2023-03-20T11:21:38.449Z,18.00
2023-03-20T11:25:48.980Z,14.23
2023-03-20T11:29:51.501Z,15.47
2023-03-20T11:34:02.236Z,15.90
2023-03-20T11:38:16.385Z,16.00
2023-03-20T11:42:26.304Z,16.20
2023-03-20T11:46:27.450Z,16.03
2023-03-20T11:50:44.046Z,17.67
2023-03-20T11:54:51.928Z,14.90
2023-03-20T11:59:02.868Z,13.83
2023-03-20T12:03:24.368Z,15.23
2023-03-20T12:07:32.231Z,13.97
2023-03-20T12:11:55.608Z,15.00
2023-03-20T12:16:00.885Z,13.53
2023-03-20T12:20:10.592Z,12.07
2023-03-20T12:24:31.124Z,13.50
2023-03-20T12:28:57.662Z,12.47
2023-03-20T12:33:23.632Z,11.87
2023-03-20T12:37:25.297Z,11.10
2023-03-20T12:41:30.620Z,8.67
2023-03-20T12:45:44.699Z,9.60
2023-03-20T12:50:05.469Z,7.83
2023-03-20T12:54:25.894Z,8.33
2023-03-20T12:58:40.032Z,6.83
2023-03-20T13:02:45.665Z,7.30
2023-03-20T13:07:01.581Z,7.17
2023-03-20T13:11:21.303Z,6.43
2023-03-20T13:15:49.515Z,5.40
2023-03-20T13:20:17.571Z,7.03
2023-03-20T13:24:31.354Z,8.13
2023-03-20T13:28:54.230Z,5.50
2023-03-20T13:33:10.931Z,4.30
2023-03-20T13:37:37.583Z,5.43
2023-03-20T13:41:38.848Z,5.00
2023-03-20T13:45:42.256Z,6.80
2023-03-20T13:49:47.308Z,5.47
2023-03-20T13:54:04.792Z,6.30
2023-03-20T13:58:15.981Z,6.23
2023-03-20T14:02:38.721Z,7.43
2023-03-20T14:06:49.770Z,6.60
2023-03-20T14:11:00.788Z,5.70
2023-03-20T14:15:03.363Z,6.03
2023-03-20T14:19:17.190Z,6.60
2023-03-20T14:23:22.230Z,6.63
2023-03-20T14:27:42.728Z,6.10
2023-03-20T14:31:34.754Z,6.13
2023-03-20T14:35:37.864Z,5.83
2023-03-20T14:39:42.810Z,6.27
2023-03-20T14:43:55.867Z,6.00
2023-03-20T14:48:26.913Z,6.20
2023-03-20T14:52:46.846Z,5.70
2023-03-20T14:56:49.414Z,5.73
2023-03-20T15:00:50.683Z,5.70
2023-03-20T15:04:52.364Z,5.07
2023-03-20T15:09:00.231Z,9.40
2023-03-20T15:13:04.313Z,6.00
2023-03-20T15:17:08.332Z,6.60
2023-03-20T15:21:16.306Z,6.27
2023-03-20T15:25:19.904Z,4.87
2023-03-20T15:29:21.881Z,6.50
2023-03-20T15:33:30.078Z,6.10
2023-03-20T15:37:33.213Z,8.53
2023-03-20T15:41:37.572Z,5.20
2023-03-20T15:45:41.964Z,5.00
2023-03-20T15:49:46.943Z,4.47
2023-03-20T15:53:48.554Z,4.77
2023-03-20T15:57:53.083Z,5.70
2023-03-20T16:01:57.793Z,4.57
2023-03-20T16:06:00.739Z,4.07
2023-03-20T16:10:01.928Z,7.30
2023-03-20T16:14:04.467Z,9.40
2023-03-20T16:18:06.649Z,10.10
2023-03-20T16:22:11.631Z,6.90
2023-03-20T16:26:16.418Z,6.20
2023-03-20T16:30:21.194Z,6.63
2023-03-20T16:34:26.250Z,7.13
2023-03-20T16:38:31.139Z,6.23
2023-03-20T16:42:32.706Z,9.63
2023-03-20T16:46:33.992Z,6.50
2023-03-20T16:50:38.444Z,6.47
2023-03-20T16:54:39.877Z,7.57
2023-03-20T16:58:44.661Z,6.60
2023-03-20T17:02:49.922Z,5.10
2023-03-20T17:06:57.248Z,6.50
2023-03-20T17:11:01.121Z,5.03
2023-03-20T17:15:02.701Z,4.13
2023-03-20T17:19:16.407Z,5.17
2023-03-20T17:23:21.030Z,5.00
2023-03-20T17:27:22.810Z,5.70
2023-03-20T17:31:23.987Z,5.00
2023-03-20T17:35:25.101Z,4.43
2023-03-20T17:39:26.250Z,5.80
2023-03-20T17:43:27.295Z,6.77
2023-03-20T17:47:29.380Z,5.47
2023-03-20T17:51:30.726Z,5.87
2023-03-20T17:55:31.872Z,4.60
2023-03-20T17:59:32.953Z,4.70
2023-03-20T18:03:35.714Z,6.03
2023-03-20T18:07:37.656Z,8.10
2023-03-20T18:11:38.816Z,6.27
2023-03-20T18:15:40.329Z,6.20
2023-03-20T18:19:42.727Z,7.50
2023-03-20T18:23:45.009Z,8.23
2023-03-20T18:27:46.170Z,7.70
2023-03-20T18:31:48.609Z,6.83
2023-03-20T18:35:50.067Z,7.83
2023-03-20T18:39:51.213Z,6.30
2023-03-20T18:43:54.250Z,6.70
2023-03-20T18:47:56.531Z,8.73
2023-03-20T18:51:57.690Z,7.17
2023-03-20T18:56:00.063Z,5.63
2023-03-20T19:00:01.316Z,9.93
2023-03-20T19:04:02.612Z,12.10
2023-03-20T19:08:04.737Z,5.83
2023-03-20T19:12:06.181Z,8.07
2023-03-20T19:16:11.589Z,10.87
2023-03-20T19:20:33.180Z,6.90
2023-03-20T19:24:34.369Z,7.23
2023-03-20T19:28:40.716Z,6.50
2023-03-20T19:32:38.513Z,7.40
2023-03-20T19:36:41.602Z,6.10
2023-03-20T19:40:46.071Z,6.17
2023-03-20T19:44:47.281Z,5.60
2023-03-20T19:48:51.212Z,5.90
2023-03-20T19:52:52.176Z,6.30
2023-03-20T19:56:53.341Z,7.20
2023-03-20T20:00:58.470Z,7.63
2023-03-20T20:04:58.440Z,10.10
2023-03-20T20:09:00.724Z,6.50
2023-03-20T20:13:03.711Z,6.27
2023-03-20T20:17:05.344Z,7.57
2023-03-20T20:22:02.169Z,5.73
2023-03-20T20:25:11.788Z,5.60
2023-03-20T20:29:12.992Z,5.40
2023-03-20T20:33:17.157Z,6.30
2023-03-20T20:41:24.224Z,4.47
2023-03-20T20:45:29.231Z,5.77
2023-03-20T20:49:30.352Z,5.47
2023-03-20T20:53:31.730Z,8.17
2023-03-20T20:57:32.897Z,7.27
2023-03-20T21:01:34.245Z,6.80
2023-03-20T21:05:37.096Z,6.97
2023-03-20T21:09:39.728Z,5.87
2023-03-20T21:13:40.938Z,7.03
2023-03-20T21:17:50.407Z,8.93
2023-03-20T21:21:45.438Z,6.87
2023-03-20T21:25:48.070Z,6.03
2023-03-20T21:29:49.906Z,5.10
2023-03-20T21:33:52.891Z,8.30
2023-03-20T21:41:57.706Z,6.40
2023-03-20T21:46:40.181Z,7.23
2023-03-20T21:54:56.787Z,6.10
2023-03-20T21:58:51.079Z,6.57
2023-03-20T22:02:21.384Z,9.33
2023-03-20T22:15:11.844Z,6.87
2023-03-20T22:39:31.632Z,8.40
2023-03-20T22:43:01.498Z,7.80
2023-03-20T22:46:51.233Z,5.80
2023-03-20T22:50:52.417Z,5.70
2023-03-20T22:54:53.570Z,8.47
2023-03-20T22:58:54.776Z,6.30
2023-03-20T23:03:06.722Z,5.10
2023-03-20T23:07:00.836Z,6.63
2023-03-20T23:11:07.531Z,6.20
2023-03-20T23:15:08.984Z,5.93
2023-03-20T23:19:11.161Z,6.70
2023-03-20T23:23:12.219Z,7.53
2023-03-20T23:27:13.370Z,9.13
2023-03-20T23:31:20.993Z,9.67
2023-03-20T23:35:22.095Z,6.70
2023-03-20T23:39:23.254Z,8.00
2023-03-20T23:43:24.706Z,7.00
2023-03-20T23:47:29.846Z,9.33
2023-03-20T23:51:28.822Z,6.50
2023-03-20T23:55:30.075Z,7.07
2023-03-20T23:59:31.447Z,10.10
